Time;durP1;ratioP1;P1;durP2;ratioP2;P2;SDS_P1;SDS_P2;PMS_P1;PMS_P2;Temp;Humidity;BMP_temperature;BMP_pressure;BME280_temperature;BME280_humidity;BME280_pressure;Samples;Min_cycle;Max_cycle;Signal;HPM_P1;HPM_P2
2023/10/08 00:00:49;;;;;;;5.10;1.75;;;13.00;99.90;;;;;;4996828;28;20041;-81
2023/10/08 00:03:20;;;;;;;3.63;1.60;;;12.90;99.90;;;;;;5012587;28;20452;-82
2023/10/08 00:05:46;;;;;;;3.85;1.80;;;12.90;99.90;;;;;;5012603;28;20095;-82
2023/10/08 00:08:14;;;;;;;4.93;1.70;;;12.90;99.90;;;;;;5012470;28;20169;-82
2023/10/08 00:10:44;;;;;;;3.28;1.98;;;12.90;99.90;;;;;;4980654;28;20042;-81
2023/10/08 00:13:17;;;;;;;7.10;2.30;;;12.90;99.90;;;;;;5012326;28;20113;-82
2023/10/08 00:15:53;;;;;;;4.47;2.30;;;12.90;99.90;;;;;;5012300;28;20038;-81
2023/10/08 00:18:20;;;;;;;3.53;2.55;;;12.90;99.90;;;;;;5012733;28;20095;-82
2023/10/08 00:20:54;;;;;;;4.25;2.72;;;12.90;99.90;;;;;;4996182;28;20049;-82
2023/10/08 00:23:21;;;;;;;3.55;2.33;;;12.90;99.90;;;;;;4985240;28;20523;-81
2023/10/08 00:25:50;;;;;;;4.63;2.80;;;12.90;99.90;;;;;;4980154;28;20159;-82
2023/10/08 00:28:17;;;;;;;3.60;2.25;;;12.90;99.90;;;;;;4995777;28;20080;-82
2023/10/08 00:30:43;;;;;;;4.22;2.10;;;12.90;99.90;;;;;;5012178;28;20120;-80
2023/10/08 00:33:09;;;;;;;3.92;2.22;;;12.90;99.90;;;;;;4995483;28;20116;-81
2023/10/08 00:35:39;;;;;;;2.58;1.98;;;12.90;99.90;;;;;;4979574;28;20179;-80
2023/10/08 00:38:07;;;;;;;3.58;2.17;;;12.90;99.90;;;;;;4995302;28;20519;-81
2023/10/08 00:40:40;;;;;;;4.47;2.40;;;12.90;99.90;;;;;;5011947;28;20057;-81
2023/10/08 00:43:10;;;;;;;2.63;2.10;;;12.80;99.90;;;;;;4995707;28;20519;-82
2023/10/08 00:45:45;;;;;;;3.63;2.22;;;12.80;99.90;;;;;;5012146;28;20042;-82
2023/10/08 00:48:16;;;;;;;4.07;2.42;;;12.80;99.90;;;;;;5011847;28;20139;-81
2023/10/08 00:50:43;;;;;;;4.05;2.60;;;12.80;99.90;;;;;;4961241;28;20044;-81
2023/10/08 00:53:21;;;;;;;3.67;2.85;;;12.80;99.90;;;;;;5008498;28;20050;-80
2023/10/08 00:56:06;;;;;;;3.60;3.30;;;12.80;99.90;;;;;;5011595;28;20081;-81
2023/10/08 00:58:34;;;;;;;4.78;3.10;;;12.80;99.90;;;;;;5011476;28;20038;-81
2023/10/08 01:01:00;;;;;;;3.17;2.88;;;12.80;99.90;;;;;;4995806;28;20042;-82
2023/10/08 01:03:29;;;;;;;4.50;3.00;;;12.80;99.90;;;;;;4995212;28;20092;-82
2023/10/08 01:05:57;;;;;;;3.63;3.33;;;12.80;99.90;;;;;;4978875;28;20049;-82
2023/10/08 01:08:36;;;;;;;5.55;3.63;;;12.80;99.90;;;;;;5011474;28;20034;-79
2023/10/08 01:14:08;;;;;;;3.50;2.97;;;12.80;99.90;;;;;;5011908;28;20038;-80
2023/10/08 01:16:34;;;;;;;4.70;3.15;;;12.80;99.90;;;;;;4979058;28;20046;-80
2023/10/08 01:19:00;;;;;;;3.60;3.00;;;12.80;99.90;;;;;;4977139;28;20498;-80
2023/10/08 01:21:39;;;;;;;4.63;3.10;;;12.80;99.90;;;;;;5011357;28;20099;-79
2023/10/08 01:24:07;;;;;;;3.75;3.25;;;12.80;99.90;;;;;;5010996;28;20057;-80
2023/10/08 01:26:39;;;;;;;3.70;3.22;;;12.80;99.90;;;;;;5011349;28;20519;-79
2023/10/08 01:29:20;;;;;;;4.22;3.13;;;12.80;99.90;;;;;;4992457;28;20053;-78
2023/10/08 01:31:48;;;;;;;2.95;2.65;;;12.80;99.90;;;;;;4981428;28;20041;-80
2023/10/08 01:34:17;;;;;;;5.03;3.20;;;12.80;99.90;;;;;;5011003;28;20042;-79
2023/10/08 01:36:44;;;;;;;3.50;2.88;;;12.80;99.90;;;;;;5011159;28;20176;-79
2023/10/08 01:39:15;;;;;;;4.93;3.03;;;12.80;99.90;;;;;;4975262;28;20413;-79
2023/10/08 01:41:46;;;;;;;3.75;2.83;;;12.80;99.90;;;;;;4990704;28;20037;-79
2023/10/08 01:44:12;;;;;;;3.67;2.80;;;12.80;99.90;;;;;;5017755;28;20400;-79
2023/10/08 01:46:40;;;;;;;4.88;3.33;;;12.80;99.90;;;;;;5017789;28;20139;-79
2023/10/08 01:49:14;;;;;;;5.88;3.00;;;12.80;99.90;;;;;;5001516;28;20169;-80
2023/10/08 01:51:46;;;;;;;3.72;3.25;;;12.80;99.90;;;;;;4985889;28;20096;-80
2023/10/08 01:54:14;;;;;;;3.58;2.90;;;12.80;99.90;;;;;;5017422;28;20038;-79
2023/10/08 01:56:41;;;;;;;4.45;2.75;;;12.70;99.90;;;;;;5001496;28;20069;-79
2023/10/08 01:59:16;;;;;;;2.95;2.63;;;12.80;99.90;;;;;;5001459;28;20396;-79
2023/10/08 02:01:43;;;;;;;3.53;2.60;;;12.70;99.90;;;;;;4984761;28;20040;-78
2023/10/08 02:04:11;;;;;;;3.78;2.80;;;12.70;99.90;;;;;;5001286;28;20049;-78
2023/10/08 02:06:39;;;;;;;4.20;3.10;;;12.80;99.90;;;;;;5018883;28;20038;-78
2023/10/08 02:09:07;;;;;;;3.95;2.78;;;12.80;99.90;;;;;;5017492;28;20548;-79
2023/10/08 02:11:53;;;;;;;3.72;3.00;;;12.80;99.90;;;;;;5000977;28;20033;-79
2023/10/08 02:14:20;;;;;;;6.78;2.83;;;12.80;99.90;;;;;;4999448;28;20121;-79
2023/10/08 02:16:47;;;;;;;3.00;2.60;;;12.70;99.90;;;;;;5016768;28;20061;-79
2023/10/08 02:19:13;;;;;;;3.67;2.88;;;12.70;99.90;;;;;;5016961;28;20038;-79
2023/10/08 02:21:39;;;;;;;3.08;2.72;;;12.80;99.90;;;;;;5000803;28;20064;-78
2023/10/08 02:24:07;;;;;;;4.00;2.90;;;12.70;99.90;;;;;;5017361;28;20034;-78
2023/10/08 02:26:34;;;;;;;3.38;2.72;;;12.70;99.90;;;;;;5016961;28;20037;-79
2023/10/08 02:29:12;;;;;;;4.00;2.40;;;12.70;99.90;;;;;;5000796;28;20220;-78
2023/10/08 02:31:39;;;;;;;3.35;2.70;;;12.70;99.90;;;;;;5017031;28;20049;-78
2023/10/08 02:34:09;;;;;;;5.43;2.92;;;12.70;99.90;;;;;;5017130;28;20038;-77
2023/10/08 02:36:42;;;;;;;3.20;2.90;;;12.70;99.90;;;;;;5000772;28;20049;-78
2023/10/08 02:39:20;;;;;;;3.53;2.80;;;12.70;99.90;;;;;;5016945;28;20545;-77
2023/10/08 02:41:48;;;;;;;3.42;2.75;;;12.70;99.90;;;;;;5016948;28;20068;-78
2023/10/08 02:44:16;;;;;;;4.53;3.28;;;12.70;99.90;;;;;;5016791;28;20053;-79
2023/10/08 02:46:49;;;;;;;4.43;3.38;;;12.70;99.90;;;;;;5017030;28;20057;-79
2023/10/08 02:49:25;;;;;;;;;;;12.70;99.90;;;;;;5017393;28;20520;-78
2023/10/08 02:51:53;;;;;;;5.35;3.50;;;12.70;99.90;;;;;;5007663;28;19917;-77
2023/10/08 02:54:32;;;;;;;4.18;2.70;;;12.70;99.90;;;;;;5013426;28;20041;-78
2023/10/08 02:56:59;;;;;;;3.65;2.70;;;12.70;99.90;;;;;;4999260;28;20401;-78
2023/10/08 02:59:45;;;;;;;4.25;3.10;;;12.70;99.90;;;;;;5013801;28;20509;-79
2023/10/08 03:02:18;;;;;;;3.15;2.70;;;12.70;99.90;;;;;;5009819;28;20041;-78
2023/10/08 03:04:45;;;;;;;4.05;2.83;;;12.70;99.90;;;;;;5013608;28;20533;-77
2023/10/08 03:07:32;;;;;;;3.42;3.00;;;12.70;99.90;;;;;;4981331;28;20037;-78
2023/10/08 03:12:54;;;;;;;4.85;2.58;;;12.60;99.90;;;;;;4994196;28;20112;-78
2023/10/08 03:15:29;;;;;;;4.55;2.88;;;12.60;99.90;;;;;;4997119;28;20069;-77
2023/10/08 03:17:57;;;;;;;5.70;3.30;;;12.60;99.90;;;;;;4998331;28;20425;-78
2023/10/08 03:20:29;;;;;;;3.25;2.95;;;12.60;99.90;;;;;;4997666;28;20048;-79
2023/10/08 03:22:59;;;;;;;4.00;2.85;;;12.60;99.90;;;;;;5013149;28;20038;-78
2023/10/08 03:25:26;;;;;;;3.65;2.80;;;12.70;99.90;;;;;;4997518;28;20091;-78
2023/10/08 03:27:54;;;;;;;4.90;3.10;;;12.60;99.90;;;;;;5014459;28;20053;-79
2023/10/08 03:30:20;;;;;;;3.33;2.80;;;12.60;99.90;;;;;;5012988;28;20041;-79
2023/10/08 03:32:50;;;;;;;3.70;2.97;;;12.60;99.90;;;;;;4996838;28;20092;-78
2023/10/08 03:35:23;;;;;;;3.60;2.63;;;12.60;99.90;;;;;;4997074;28;20034;-79
2023/10/08 03:37:50;;;;;;;3.90;3.03;;;12.60;99.90;;;;;;4997620;28;20046;-79
2023/10/08 03:40:25;;;;;;;3.22;2.92;;;12.60;99.90;;;;;;4963630;28;20460;-79
2023/10/08 03:42:55;;;;;;;5.32;2.88;;;12.60;99.90;;;;;;4997834;28;20069;-79
2023/10/08 03:48:15;;;;;;;6.30;3.38;;;12.60;99.90;;;;;;4999117;28;20131;-80
2023/10/08 03:50:42;;;;;;;4.25;3.15;;;12.60;99.90;;;;;;5012811;28;20168;-80
2023/10/08 03:53:11;;;;;;;3.17;2.75;;;12.60;99.90;;;;;;4997089;28;20052;-80
2023/10/08 03:55:40;;;;;;;6.05;3.20;;;12.60;99.90;;;;;;5012591;28;20038;-80
2023/10/08 04:01:09;;;;;;;5.05;2.92;;;12.60;99.90;;;;;;4983719;28;20433;-78
2023/10/08 04:06:21;;;;;;;6.85;3.13;;;12.60;99.90;;;;;;4978799;28;20109;-79
2023/10/08 04:11:35;;;;;;;5.50;3.10;;;12.60;99.90;;;;;;4998461;28;20092;-78
2023/10/08 04:14:04;;;;;;;5.65;3.10;;;12.60;99.90;;;;;;4996393;28;20054;-78
2023/10/08 04:16:36;;;;;;;4.95;3.20;;;12.60;99.90;;;;;;4976797;28;20116;-80
2023/10/08 04:19:03;;;;;;;3.63;2.95;;;12.60;99.90;;;;;;4992267;28;20030;-79
2023/10/08 04:21:29;;;;;;;3.55;3.03;;;12.60;99.90;;;;;;4996257;28;20489;-80
2023/10/08 04:23:57;;;;;;;6.63;3.40;;;12.60;99.90;;;;;;5012344;28;20042;-80
2023/10/08 04:26:26;;;;;;;8.02;3.70;;;12.60;99.90;;;;;;4995815;28;20048;-80
2023/10/08 04:29:02;;;;;;;7.88;4.15;;;12.50;99.90;;;;;;4995794;28;20095;-80
2023/10/08 04:31:37;;;;;;;5.25;4.43;;;12.50;99.90;;;;;;5011811;28;20041;-80
2023/10/08 04:34:09;;;;;;;7.05;4.05;;;12.50;99.90;;;;;;4980849;28;20041;-80
2023/10/08 04:36:38;;;;;;;;;;;12.50;99.90;;;;;;4996933;28;20069;-80
2023/10/08 04:39:47;;;;;;;5.60;3.97;;;12.50;99.90;;;;;;5012068;28;19924;-81
2023/10/08 04:41:54;;;;;;;13.95;4.47;;;12.50;99.90;;;;;;4991654;28;20172;-79
2023/10/08 04:44:21;;;;;;;7.72;3.88;;;12.50;99.90;;;;;;5011793;28;20070;-80
2023/10/08 04:46:51;;;;;;;7.28;4.03;;;12.50;99.90;;;;;;4994923;28;20056;-80
2023/10/08 04:49:45;;;;;;;6.15;4.13;;;12.50;99.90;;;;;;4980437;28;20052;-80
2023/10/08 04:52:13;;;;;;;6.25;3.90;;;12.50;99.90;;;;;;5011262;28;20049;-81
2023/10/08 04:54:40;;;;;;;7.03;3.75;;;12.50;99.90;;;;;;4996858;28;20225;-81
2023/10/08 04:57:14;;;;;;;7.22;3.65;;;12.60;99.90;;;;;;4995694;28;20382;-80
2023/10/08 04:59:42;;;;;;;6.97;3.45;;;12.60;99.90;;;;;;5011623;28;20048;-80
2023/10/08 05:02:20;;;;;;;6.00;3.08;;;12.50;99.90;;;;;;5011856;28;20041;-80
2023/10/08 05:10:10;;;;;;;5.78;3.10;;;12.50;99.90;;;;;;5011432;28;20089;-81
2023/10/08 05:12:50;;;;;;;6.85;3.20;;;12.50;99.90;;;;;;4991246;28;20127;-81
2023/10/08 05:23:53;;;;;;;6.00;3.28;;;12.50;99.90;;;;;;5008868;28;20041;-81
2023/10/08 05:28:46;;;;;;;6.88;2.90;;;12.50;99.90;;;;;;5003197;28;20091;-81
2023/10/08 05:34:14;;;;;;;9.23;3.22;;;12.50;99.90;;;;;;5011383;28;20455;-81
2023/10/08 05:36:51;;;;;;;11.02;3.58;;;12.50;99.90;;;;;;5011198;28;20732;-80
2023/10/08 05:42:20;;;;;;;5.95;3.15;;;12.50;99.90;;;;;;4996790;28;20050;-80
2023/10/08 05:45:05;;;;;;;7.63;3.13;;;12.50;99.90;;;;;;4977881;28;20053;-80
2023/10/08 05:53:15;;;;;;;7.32;3.60;;;12.50;99.90;;;;;;5011196;28;20329;-80
2023/10/08 05:55:47;;;;;;;5.50;3.38;;;12.50;99.90;;;;;;5009153;28;20445;-80
2023/10/08 05:58:13;;;;;;;4.40;3.03;;;12.50;99.90;;;;;;4980095;28;20042;-80
2023/10/08 06:03:32;;;;;;;8.68;3.28;;;12.50;99.90;;;;;;5010660;28;20061;-80
2023/10/08 06:14:13;;;;;;;5.57;2.95;;;12.50;99.90;;;;;;5010277;28;20054;-80
2023/10/08 06:16:41;;;;;;;8.00;3.78;;;12.50;99.90;;;;;;5010646;28;20042;-80
2023/10/08 06:19:09;;;;;;;9.63;3.63;;;12.60;99.90;;;;;;5010605;28;20627;-80
2023/10/08 06:21:40;;;;;;;8.70;3.40;;;12.50;99.90;;;;;;4994684;28;20050;-81
2023/10/08 06:24:08;;;;;;;5.55;3.00;;;12.60;99.90;;;;;;4994186;28;20052;-81
2023/10/08 06:27:25;;;;;;;7.13;3.13;;;12.60;99.90;;;;;;5012133;28;20214;-81
2023/10/08 06:29:28;;;;;;;6.28;3.13;;;12.60;99.90;;;;;;4987822;28;20050;-80
2023/10/08 06:31:55;;;;;;;10.25;3.33;;;12.60;99.90;;;;;;4984527;28;20046;-81
2023/10/08 06:34:22;;;;;;;7.03;3.13;;;12.60;99.90;;;;;;4998213;28;20057;-80
2023/10/08 06:36:53;;;;;;;5.57;3.25;;;12.60;99.90;;;;;;4981714;28;20489;-80
2023/10/08 06:39:33;;;;;;;6.30;3.22;;;12.70;99.90;;;;;;4998170;28;20397;-80
2023/10/08 06:42:00;;;;;;;6.75;3.40;;;12.70;99.90;;;;;;5013282;28;20520;-81
2023/10/08 06:44:27;;;;;;;9.43;3.08;;;12.70;99.90;;;;;;4998061;28;20515;-80
2023/10/08 06:46:54;;;;;;;5.25;3.20;;;12.70;99.90;;;;;;5013776;28;20136;-80
2023/10/08 06:49:23;;;;;;;8.43;4.00;;;12.70;99.90;;;;;;5014024;28;20521;-80
2023/10/08 06:51:50;;;;;;;9.10;3.72;;;12.70;99.90;;;;;;4964708;28;20047;-81
2023/10/08 06:54:17;;;;;;;8.40;4.20;;;12.80;99.90;;;;;;5014173;28;20152;-80
2023/10/08 06:56:46;;;;;;;6.05;3.92;;;12.80;99.90;;;;;;4997822;28;20397;-80
2023/10/08 06:59:13;;;;;;;7.85;3.67;;;12.90;99.90;;;;;;5013940;28;20048;-80
2023/10/08 07:01:39;;;;;;;5.47;3.10;;;12.90;99.90;;;;;;4997433;28;20500;-80
2023/10/08 07:04:11;;;;;;;6.38;3.92;;;12.90;99.90;;;;;;5013693;28;20045;-79
2023/10/08 07:06:40;;;;;;;7.45;3.65;;;12.90;99.90;;;;;;4997385;28;20052;-80
2023/10/08 07:09:28;;;;;;;6.70;3.58;;;13.00;99.90;;;;;;4997427;28;20412;-80
2023/10/08 07:11:56;;;;;;;10.55;3.60;;;13.00;99.90;;;;;;5013681;28;20049;-80
2023/10/08 07:14:29;;;;;;;7.35;3.58;;;13.00;99.90;;;;;;4997281;28;20045;-79
2023/10/08 07:16:58;;;;;;;9.18;3.33;;;13.00;99.90;;;;;;4998208;28;20142;-79
2023/10/08 07:19:32;;;;;;;6.55;3.40;;;13.00;99.90;;;;;;5013716;28;20045;-79
2023/10/08 07:22:06;;;;;;;9.65;3.53;;;13.10;99.90;;;;;;5013379;28;20042;-79
2023/10/08 07:24:34;;;;;;;7.60;3.60;;;13.10;99.90;;;;;;4998015;28;20057;-79
2023/10/08 07:27:08;;;;;;;7.40;3.30;;;13.10;99.90;;;;;;5005930;28;20125;-79
2023/10/08 07:29:35;;;;;;;7.90;2.80;;;13.20;99.90;;;;;;5008397;28;20081;-79
2023/10/08 07:32:09;;;;;;;8.82;2.97;;;13.20;99.90;;;;;;4980912;28;20374;-79
2023/10/08 07:34:36;;;;;;;8.98;3.30;;;13.20;99.90;;;;;;5013198;28;20057;-80
2023/10/08 07:37:02;;;;;;;7.00;3.00;;;13.30;99.90;;;;;;4997337;28;20049;-79
2023/10/08 07:39:35;;;;;;;6.60;2.92;;;13.30;99.90;;;;;;5012328;28;20042;-80
2023/10/08 07:42:08;;;;;;;8.10;2.90;;;13.30;99.90;;;;;;4996633;28;20125;-80
2023/10/08 07:44:35;;;;;;;7.15;3.20;;;13.40;99.90;;;;;;5013114;28;20049;-80
2023/10/08 07:47:04;;;;;;;7.15;2.92;;;13.40;99.90;;;;;;5013052;28;20129;-80
2023/10/08 07:49:31;;;;;;;9.65;3.53;;;13.40;99.90;;;;;;4996589;28;20041;-79
2023/10/08 07:51:59;;;;;;;9.23;3.28;;;13.40;99.90;;;;;;4996529;28;20050;-80
2023/10/08 07:54:29;;;;;;;6.88;2.55;;;13.40;99.90;;;;;;5012684;28;20049;-80
2023/10/08 07:57:17;;;;;;;11.93;3.30;;;13.50;99.90;;;;;;4996619;28;20129;-79
2023/10/08 07:59:58;;;;;;;5.60;2.50;;;13.50;99.90;;;;;;4999312;28;20068;-79
2023/10/08 08:02:23;;;;;;;11.63;2.97;;;13.50;99.90;;;;;;4998190;28;20038;-79
2023/10/08 08:04:53;;;;;;;8.70;2.63;;;13.50;99.90;;;;;;4996367;28;20037;-80
2023/10/08 08:07:19;;;;;;;6.00;2.47;;;13.50;99.90;;;;;;4996358;28;20065;-80
2023/10/08 08:09:50;;;;;;;7.72;2.25;;;13.50;99.90;;;;;;4995875;28;20433;-79
2023/10/08 08:12:28;;;;;;;6.85;2.40;;;13.50;99.90;;;;;;5012362;28;20045;-78
2023/10/08 08:14:54;;;;;;;8.25;2.72;;;13.60;99.90;;;;;;5012543;28;20052;-79
2023/10/08 08:17:22;;;;;;;8.40;2.78;;;13.60;99.90;;;;;;4996037;28;20517;-79
2023/10/08 08:19:52;;;;;;;14.18;3.20;;;13.70;99.90;;;;;;5012723;28;20382;-79
2023/10/08 08:22:22;;;;;;;10.02;3.28;;;13.70;99.90;;;;;;5011675;28;20042;-80
2023/10/08 08:27:53;;;;;;;9.73;3.20;;;13.60;99.90;;;;;;4925496;29;20138;-80
2023/10/08 08:30:19;;;;;;;12.63;3.38;;;13.60;99.90;;;;;;4968054;28;20137;-81
2023/10/08 08:32:49;;;;;;;9.27;3.08;;;13.60;99.90;;;;;;4995746;28;20117;-81
2023/10/08 08:35:19;;;;;;;5.75;2.33;;;13.50;99.90;;;;;;4995535;28;20037;-81
2023/10/08 08:37:46;;;;;;;12.57;3.53;;;13.50;99.90;;;;;;4997343;28;20116;-80
2023/10/08 08:40:17;;;;;;;11.63;3.20;;;13.50;99.90;;;;;;4998905;28;20400;-79
2023/10/08 08:42:52;;;;;;;8.35;2.97;;;13.50;99.90;;;;;;4999319;28;20050;-80
2023/10/08 08:45:24;;;;;;;12.90;3.00;;;13.50;99.90;;;;;;4996491;28;20157;-80
2023/10/08 08:47:51;;;;;;;10.35;2.78;;;13.50;99.90;;;;;;5011850;28;20510;-81
2023/10/08 08:50:19;;;;;;;6.28;2.63;;;13.50;99.90;;;;;;4994908;28;20046;-82
2023/10/08 08:52:48;;;;;;;9.07;3.45;;;13.60;99.90;;;;;;5011773;28;20721;-82
2023/10/08 08:55:14;;;;;;;9.30;2.80;;;13.70;99.90;;;;;;5011976;28;20044;-82
2023/10/08 08:57:59;;;;;;;9.43;2.90;;;13.80;99.90;;;;;;4995052;28;20084;-82
2023/10/08 09:00:29;;;;;;;5.35;2.60;;;13.90;99.90;;;;;;5011577;28;20088;-82
2023/10/08 09:02:55;;;;;;;9.15;2.85;;;13.90;99.90;;;;;;5011612;28;20153;-82
2023/10/08 09:05:34;;;;;;;10.23;2.90;;;13.90;99.90;;;;;;4979138;28;20042;-81
2023/10/08 09:08:04;;;;;;;7.43;2.45;;;14.00;99.90;;;;;;4986327;28;20046;-81
2023/10/08 09:10:36;;;;;;;10.77;2.83;;;14.00;99.90;;;;;;5007353;28;20456;-81
2023/10/08 09:13:03;;;;;;;8.02;2.60;;;14.00;99.90;;;;;;5011893;28;20049;-82
2023/10/08 09:15:29;;;;;;;15.40;2.55;;;14.10;99.90;;;;;;4979178;28;20069;-80
2023/10/08 09:17:56;;;;;;;8.27;2.67;;;14.10;99.90;;;;;;5011370;28;20508;-81
2023/10/08 09:20:23;;;;;;;7.43;2.55;;;14.20;99.90;;;;;;5011770;28;20057;-80
2023/10/08 09:23:11;;;;;;;7.25;2.72;;;14.30;99.90;;;;;;4994869;28;20493;-81
2023/10/08 09:25:40;;;;;;;10.32;2.50;;;14.30;99.90;;;;;;5011327;28;20052;-79
2023/10/08 09:28:12;;;;;;;8.52;2.42;;;14.30;99.90;;;;;;4995220;28;20057;-80
2023/10/08 09:30:39;;;;;;;6.88;2.28;;;14.40;99.90;;;;;;4979557;28;20069;-80
2023/10/08 09:33:07;;;;;;;12.88;2.53;;;14.50;99.90;;;;;;5011418;28;20049;-79
2023/10/08 09:35:33;;;;;;;9.73;2.47;;;14.60;99.90;;;;;;4994157;28;20049;-79
2023/10/08 09:38:03;;;;;;;9.85;2.55;;;14.70;99.90;;;;;;5011013;28;20046;-79
2023/10/08 09:40:29;;;;;;;8.57;2.38;;;14.70;99.90;;;;;;4994749;28;20505;-79
2023/10/08 09:42:55;;;;;;;7.95;2.50;;;14.70;99.90;;;;;;5011324;28;20046;-80
2023/10/08 09:45:21;;;;;;;7.60;2.50;;;14.70;99.90;;;;;;4978579;28;20042;-80
2023/10/08 09:47:54;;;;;;;11.60;3.50;;;14.80;99.90;;;;;;4994883;28;20128;-79
2023/10/08 09:50:32;;;;;;;7.30;2.90;;;14.80;99.90;;;;;;5010906;28;20046;-80
2023/10/08 09:53:22;;;;;;;9.52;2.80;;;14.80;99.90;;;;;;5010942;28;20050;-80
2023/10/08 09:55:57;;;;;;;8.68;2.75;;;14.80;99.90;;;;;;4997445;28;20049;-79
2023/10/08 09:58:26;;;;;;;8.05;2.55;;;14.80;99.90;;;;;;5010623;28;20516;-79
2023/10/08 10:00:55;;;;;;;8.18;2.70;;;14.90;99.90;;;;;;5011290;28;20050;-78
2023/10/08 10:03:23;;;;;;;7.47;2.78;;;15.00;99.90;;;;;;5014806;28;20064;-79
2023/10/08 10:05:50;;;;;;;7.88;2.60;;;15.20;99.90;;;;;;4999089;28;20065;-79
2023/10/08 10:08:16;;;;;;;7.57;2.50;;;15.40;99.90;;;;;;4990036;28;20057;-79
2023/10/08 10:10:47;;;;;;;10.63;3.28;;;15.60;99.90;;;;;;5011991;28;20497;-79
2023/10/08 10:13:16;;;;;;;6.88;2.75;;;15.70;99.90;;;;;;5014487;28;20052;-78
2023/10/08 10:15:44;;;;;;;8.75;3.15;;;15.80;99.90;;;;;;5014453;28;20473;-78
2023/10/08 10:18:25;;;;;;;12.38;3.65;;;16.00;99.90;;;;;;5014502;28;20049;-78
2023/10/08 10:21:00;;;;;;;9.30;3.28;;;16.10;99.90;;;;;;4998456;28;20041;-78
2023/10/08 10:23:46;;;;;;;13.88;3.83;;;16.20;99.90;;;;;;4991674;28;20404;-79
2023/10/08 10:26:26;;;;;;;13.32;3.08;;;16.30;99.90;;;;;;5010117;28;20042;-78
2023/10/08 10:29:10;;;;;;;7.28;2.40;;;16.40;99.90;;;;;;4998707;28;20042;-78
2023/10/08 10:31:38;;;;;;;8.93;2.65;;;16.30;99.90;;;;;;5014335;28;20101;-78
2023/10/08 10:34:08;;;;;;;10.45;2.83;;;16.30;99.90;;;;;;4999240;28;20057;-78
2023/10/08 10:36:35;;;;;;;9.30;2.53;;;16.20;99.90;;;;;;5014207;28;20038;-78
2023/10/08 10:39:15;;;;;;;8.95;2.78;;;16.20;99.90;;;;;;4998302;28;20042;-77
2023/10/08 10:41:42;;;;;;;11.32;3.35;;;16.10;99.90;;;;;;5014714;28;20517;-78
2023/10/08 10:44:08;;;;;;;13.93;3.22;;;16.10;99.90;;;;;;5014522;28;20049;-79
2023/10/08 10:46:36;;;;;;;9.57;2.60;;;16.10;99.90;;;;;;4997253;28;20050;-77
2023/10/08 10:51:48;;;;;;;9.15;2.50;;;16.10;99.90;;;;;;4995944;28;20045;-78
2023/10/08 10:54:23;;;;;;;9.40;2.80;;;16.10;99.90;;;;;;4997861;28;20066;-78
2023/10/08 10:57:03;;;;;;;6.78;2.20;;;16.10;99.90;;;;;;5015021;28;20037;-77
2023/10/08 10:59:36;;;;;;;7.63;3.03;;;16.20;99.90;;;;;;4997601;28;20037;-77
2023/10/08 11:02:20;;;;;;;9.95;2.90;;;16.20;99.90;;;;;;4965949;28;20118;-77
2023/10/08 11:04:51;;;;;;;8.25;2.90;;;16.20;99.90;;;;;;4983442;28;20404;-78
2023/10/08 11:07:23;;;;;;;11.60;2.47;;;16.10;99.90;;;;;;5013596;28;20046;-77
2023/10/08 11:09:51;;;;;;;7.57;2.50;;;16.00;99.90;;;;;;4997136;28;20520;-77
2023/10/08 11:12:22;;;;;;;10.43;2.97;;;16.10;99.90;;;;;;5013067;28;20408;-77
2023/10/08 11:14:51;;;;;;;12.98;2.58;;;16.20;99.90;;;;;;5013481;28;20045;-77
2023/10/08 11:17:28;;;;;;;10.07;3.00;;;16.40;99.90;;;;;;5013838;28;20092;-76
2023/10/08 11:19:54;;;;;;;10.23;2.63;;;16.60;99.90;;;;;;4996981;28;20047;-76
2023/10/08 11:22:22;;;;;;;11.77;2.47;;;16.60;99.90;;;;;;4997194;28;20050;-76
2023/10/08 11:24:48;;;;;;;10.93;3.55;;;16.70;99.90;;;;;;5012969;28;20053;-77
2023/10/08 11:27:39;;;;;;;8.93;2.78;;;16.70;99.90;;;;;;5014692;28;20046;-77
2023/10/08 11:30:10;;;;;;;8.00;2.60;;;16.80;99.90;;;;;;5012311;28;20516;-77
2023/10/08 11:32:38;;;;;;;6.93;2.15;;;16.90;99.90;;;;;;5013750;28;20095;-77
2023/10/08 11:35:15;;;;;;;7.32;2.60;;;17.00;99.90;;;;;;5012907;28;20084;-76
2023/10/08 11:37:48;;;;;;;9.30;2.72;;;17.30;99.90;;;;;;4982418;28;20142;-77
2023/10/08 11:40:46;;;;;;;10.48;2.60;;;17.40;99.90;;;;;;5012714;28;20096;-77
2023/10/08 11:43:15;;;;;;;10.45;2.70;;;17.40;99.90;;;;;;5012928;28;20048;-77
2023/10/08 11:45:48;;;;;;;7.80;2.28;;;17.40;99.90;;;;;;5013294;28;20133;-78
2023/10/08 11:48:17;;;;;;;6.82;2.40;;;17.40;99.90;;;;;;5012974;28;20077;-76
2023/10/08 11:50:43;;;;;;;8.77;2.30;;;17.50;99.90;;;;;;4996917;28;20492;-77
2023/10/08 11:53:11;;;;;;;10.68;2.42;;;17.40;99.90;;;;;;4996435;28;20070;-77
2023/10/08 11:55:38;;;;;;;10.50;2.28;;;17.40;99.90;;;;;;5012678;28;20054;-76
2023/10/08 11:58:12;;;;;;;9.20;2.67;;;17.40;99.90;;;;;;5013350;28;20038;-76
2023/10/08 12:00:44;;;;;;;8.75;2.60;;;17.40;99.90;;;;;;4979777;28;20040;-76
2023/10/08 12:03:18;;;;;;;6.25;1.90;;;17.40;99.90;;;;;;5012735;28;20106;-76
2023/10/08 12:05:47;;;;;;;6.95;2.30;;;17.30;99.90;;;;;;5012329;28;20042;-76
2023/10/08 12:08:16;;;;;;;7.43;2.50;;;17.20;99.90;;;;;;4996625;28;20045;-77
2023/10/08 12:10:43;;;;;;;9.77;2.30;;;17.20;99.90;;;;;;4995944;28;20041;-76
2023/10/08 12:13:10;;;;;;;9.63;2.78;;;17.00;99.90;;;;;;4980259;28;20045;-75
2023/10/08 12:15:41;;;;;;;19.08;2.53;;;17.10;99.90;;;;;;4996024;28;20041;-76
2023/10/08 12:18:15;;;;;;;8.43;2.28;;;17.10;99.90;;;;;;4996610;28;20505;-77
2023/10/08 12:20:46;;;;;;;8.55;2.90;;;17.20;99.90;;;;;;5012468;28;20048;-77
2023/10/08 12:23:19;;;;;;;8.55;3.20;;;17.40;99.90;;;;;;5012173;28;20038;-77
2023/10/08 12:25:51;;;;;;;6.53;2.47;;;17.50;99.90;;;;;;4995795;28;20049;-76
2023/10/08 12:28:18;;;;;;;6.30;2.75;;;17.60;99.90;;;;;;5011923;28;20125;-77
2023/10/08 12:30:45;;;;;;;10.52;2.50;;;17.70;99.90;;;;;;5012327;28;20559;-77
2023/10/08 12:33:15;;;;;;;6.03;2.28;;;17.70;99.90;;;;;;5012289;28;20509;-77
2023/10/08 12:35:43;;;;;;;8.07;2.35;;;17.70;99.90;;;;;;4995095;28;20050;-77
2023/10/08 12:38:09;;;;;;;7.93;2.90;;;17.60;99.90;;;;;;4996021;28;20055;-76
2023/10/08 12:40:47;;;;;;;7.63;2.25;;;17.60;99.90;;;;;;4995353;28;20122;-76
2023/10/08 12:43:19;;;;;;;9.88;2.63;;;17.50;99.90;;;;;;5011911;28;20047;-76
2023/10/08 12:45:52;;;;;;;7.95;2.55;;;17.50;99.90;;;;;;5011942;28;20433;-76
2023/10/08 12:48:27;;;;;;;8.18;2.47;;;17.40;99.90;;;;;;5013041;28;20046;-76
2023/10/08 12:50:57;;;;;;;7.25;2.50;;;17.40;99.90;;;;;;5011813;28;20037;-77
2023/10/08 12:53:39;;;;;;;9.68;2.22;;;17.40;99.90;;;;;;5013169;28;20072;-76
2023/10/08 12:56:06;;;;;;;7.30;2.38;;;17.40;99.90;;;;;;5011784;28;20088;-76
2023/10/08 12:58:41;;;;;;;8.07;2.88;;;17.40;99.90;;;;;;5011657;28;20042;-76
2023/10/08 13:01:09;;;;;;;13.10;2.47;;;17.40;99.90;;;;;;5012043;28;20044;-77
2023/10/08 13:03:41;;;;;;;12.02;3.03;;;17.40;99.90;;;;;;5011520;28;20527;-76
2023/10/08 13:06:11;;;;;;;10.30;3.28;;;17.50;99.90;;;;;;5011424;28;20073;-75
2023/10/08 13:08:37;;;;;;;8.27;2.53;;;17.40;99.90;;;;;;4979717;28;20121;-76
2023/10/08 13:11:03;;;;;;;6.65;2.45;;;17.60;99.90;;;;;;4994841;28;20525;-76
2023/10/08 13:13:33;;;;;;;6.53;2.70;;;17.60;99.90;;;;;;4994720;28;20046;-77
2023/10/08 13:16:06;;;;;;;7.10;2.47;;;17.50;99.90;;;;;;5011468;28;20050;-75
2023/10/08 13:18:33;;;;;;;8.30;2.35;;;17.50;99.90;;;;;;4994943;28;20049;-76
2023/10/08 13:20:58;;;;;;;6.93;2.47;;;17.60;99.90;;;;;;5009060;28;20046;-77
2023/10/08 13:23:24;;;;;;;9.68;2.50;;;17.70;99.90;;;;;;5011246;28;20041;-76
2023/10/08 13:25:54;;;;;;;6.80;2.00;;;17.80;99.90;;;;;;4978741;28;20044;-77
2023/10/08 13:28:23;;;;;;;7.50;2.47;;;17.70;99.90;;;;;;4995144;28;20050;-77
2023/10/08 13:30:52;;;;;;;8.00;2.67;;;17.70;99.90;;;;;;5011453;28;20049;-77
2023/10/08 13:33:20;;;;;;;8.07;2.45;;;17.70;99.90;;;;;;5010844;28;20037;-77
2023/10/08 13:35:49;;;;;;;6.68;2.20;;;17.80;99.90;;;;;;4978434;28;20042;-77
2023/10/08 13:38:16;;;;;;;8.48;2.58;;;17.80;99.90;;;;;;4995251;28;20053;-76
2023/10/08 13:41:02;;;;;;;7.60;2.03;;;17.80;99.90;;;;;;4994846;28;20037;-77
2023/10/08 13:43:34;;;;;;;5.30;2.17;;;17.80;99.90;;;;;;4992036;28;20038;-77
2023/10/08 13:46:04;;;;;;;8.15;2.35;;;17.80;99.90;;;;;;4994709;28;20401;-77
2023/10/08 13:48:32;;;;;;;7.72;2.45;;;17.80;99.90;;;;;;5010477;28;20057;-76
2023/10/08 13:51:03;;;;;;;6.75;2.40;;;17.80;99.90;;;;;;5011348;28;20045;-76
2023/10/08 13:53:32;;;;;;;9.98;2.55;;;17.70;99.90;;;;;;4995079;28;20042;-75
2023/10/08 13:56:01;;;;;;;7.22;2.30;;;17.50;99.90;;;;;;5010702;28;20042;-75
2023/10/08 13:58:31;;;;;;;5.50;2.20;;;17.40;99.90;;;;;;5011062;28;20057;-76
2023/10/08 14:01:01;;;;;;;8.07;2.70;;;17.30;99.90;;;;;;4994670;28;20045;-76
2023/10/08 14:03:30;;;;;;;6.50;2.58;;;17.20;99.90;;;;;;4994547;28;20038;-76
2023/10/08 14:06:04;;;;;;;7.43;2.63;;;17.20;99.90;;;;;;5010982;28;20049;-76